Time;durP1;ratioP1;P1;durP2;ratioP2;P2;SDS_P1;SDS_P2;PMS_P1;PMS_P2;Temp;Humidity;BMP_temperature;BMP_pressure;BME280_temperature;BME280_humidity;BME280_pressure;Samples;Min_cycle;Max_cycle;Signal;HPM_P1;HPM_P2
2022/08/15 00:01:00;;;;;;;;;;;24.10;65.50;;;;;;5042068;28;19979;-71
2022/08/15 00:03:30;;;;;;;;;;;24.10;65.20;;;;;;5039405;28;19942;-71
2022/08/15 00:05:58;;;;;;;;;;;24.10;65.10;;;;;;5035987;28;19917;-71
2022/08/15 00:08:23;;;;;;;;;;;24.10;65.40;;;;;;5041879;28;19916;-71
2022/08/15 00:10:49;;;;;;;;;;;24.10;65.30;;;;;;5042548;28;20612;-71
2022/08/15 00:13:17;;;;;;;;;;;24.00;65.20;;;;;;5041805;28;20285;-71
2022/08/15 00:15:45;;;;;;;;;;;24.00;65.20;;;;;;5010480;28;19922;-71
2022/08/15 00:18:10;;;;;;;;;;;24.00;65.70;;;;;;5024042;28;20549;-71
2022/08/15 00:20:37;;;;;;;;;;;24.00;65.90;;;;;;5022551;28;19909;-71
2022/08/15 00:23:04;;;;;;;;;;;23.90;66.10;;;;;;5019652;28;19921;-71
2022/08/15 00:25:29;;;;;;;;;;;23.90;66.10;;;;;;5023455;28;19912;-71
2022/08/15 00:27:55;;;;;;;;;;;23.90;65.90;;;;;;5024062;28;19964;-71
2022/08/15 00:30:21;;;;;;;;;;;23.90;65.60;;;;;;5030742;28;19989;-71
2022/08/15 00:32:53;;;;;;;;;;;23.90;65.50;;;;;;5022659;28;19961;-71
2022/08/15 00:35:39;;;;;;;;;;;23.90;65.40;;;;;;5005219;28;19913;-71
2022/08/15 00:38:12;;;;;;;;;;;23.80;65.60;;;;;;5022010;28;20563;-71
2022/08/15 00:43:26;;;;;;;;;;;23.80;65.60;;;;;;5041884;28;19962;-71
2022/08/15 00:45:52;;;;;;;;;;;23.80;65.80;;;;;;5027064;28;19985;-71
2022/08/15 00:51:03;;;;;;;;;;;23.70;66.10;;;;;;5033695;28;20021;-71
2022/08/15 00:53:29;;;;;;;;;;;23.70;66.10;;;;;;5020873;28;20440;-71
2022/08/15 00:55:56;;;;;;;;;;;23.70;65.80;;;;;;5036510;28;19916;-71
2022/08/15 00:58:21;;;;;;;;;;;23.70;65.60;;;;;;5041360;28;19973;-71
2022/08/15 01:00:48;;;;;;;;;;;23.70;65.80;;;;;;5041298;28;19916;-71
2022/08/15 01:03:16;;;;;;;;;;;23.70;65.70;;;;;;5041406;28;20548;-71
2022/08/15 01:05:46;;;;;;;;;;;23.70;66.00;;;;;;5018617;28;19913;-71
2022/08/15 01:08:11;;;;;;;;;;;23.60;65.80;;;;;;5041513;28;20496;-71
2022/08/15 01:10:38;;;;;;;;;;;23.60;65.90;;;;;;5036389;28;19946;-71
2022/08/15 01:13:04;;;;;;;;;;;23.60;66.30;;;;;;5041216;28;19912;-71
2022/08/15 01:15:31;;;;;;;;;;;23.60;66.40;;;;;;5029440;28;20489;-71
2022/08/15 01:17:56;;;;;;;;;;;23.50;66.30;;;;;;5022290;28;20593;-71
2022/08/15 01:20:24;;;;;;;;;;;23.60;66.40;;;;;;5016097;28;19913;-71
2022/08/15 01:23:09;;;;;;;;;;;23.60;66.20;;;;;;5020250;28;20653;-71
2022/08/15 01:25:44;;;;;;;;;;;23.50;66.20;;;;;;5040974;28;19912;-71
2022/08/15 01:28:14;;;;;;;;;;;23.50;66.30;;;;;;5013080;28;20028;-71
2022/08/15 01:30:41;;;;;;;;;;;23.50;66.30;;;;;;5020786;28;20620;-71
2022/08/15 01:33:07;;;;;;;;;;;23.50;66.20;;;;;;5003542;28;19961;-71
2022/08/15 01:35:33;;;;;;;;;;;23.50;66.20;;;;;;5021821;28;20398;-71
2022/08/15 01:37:59;;;;;;;;;;;23.50;66.10;;;;;;5021924;28;19913;-70
2022/08/15 01:40:25;;;;;;;;;;;23.50;66.20;;;;;;5021613;28;19914;-71
2022/08/15 01:42:52;;;;;;;;;;;23.40;66.00;;;;;;5021870;28;19917;-71
2022/08/15 01:45:19;;;;;;;;;;;23.40;66.00;;;;;;5021535;28;20425;-70
2022/08/15 01:47:48;;;;;;;;;;;23.40;65.70;;;;;;5021837;28;20596;-71
2022/08/15 01:50:13;;;;;;;;;;;23.40;65.60;;;;;;5021973;28;19975;-71
2022/08/15 01:52:51;;;;;;;;;;;23.40;65.70;;;;;;5020500;28;19956;-71
2022/08/15 01:55:18;;;;;;;;;;;23.40;65.70;;;;;;5036949;28;19923;-70
2022/08/15 01:57:43;;;;;;;;;;;23.40;65.80;;;;;;5040426;28;19913;-71
2022/08/15 02:00:10;;;;;;;;;;;23.30;65.70;;;;;;5040309;28;19920;-70
2022/08/15 02:02:36;;;;;;;;;;;23.40;65.70;;;;;;5035812;28;20019;-71
2022/08/15 02:05:03;;;;;;;;;;;23.40;65.80;;;;;;5040788;28;19912;-71
2022/08/15 02:07:29;;;;;;;;;;;23.30;65.90;;;;;;5031305;28;20035;-71
2022/08/15 02:09:55;;;;;;;;;;;23.30;65.90;;;;;;5040899;28;19967;-71
2022/08/15 02:12:24;;;;;;;;;;;23.30;65.80;;;;;;5041324;28;20353;-71
2022/08/15 02:14:49;;;;;;;;;;;23.30;65.50;;;;;;5034136;28;20062;-71
2022/08/15 02:17:16;;;;;;;;;;;23.30;65.70;;;;;;5021095;28;19913;-71
2022/08/15 02:19:44;;;;;;;;;;;23.20;66.00;;;;;;5020843;28;19913;-71
2022/08/15 02:22:10;;;;;;;;;;;23.20;66.10;;;;;;5021888;28;19917;-71
2022/08/15 02:24:36;;;;;;;;;;;23.20;66.30;;;;;;5031806;28;19913;-71
2022/08/15 02:27:02;;;;;;;;;;;23.20;66.40;;;;;;5021255;28;19924;-70
2022/08/15 02:29:29;;;;;;;;;;;23.10;66.20;;;;;;5020853;28;19917;-71
2022/08/15 02:31:56;;;;;;;;;;;23.10;66.40;;;;;;5021391;28;19917;-71
2022/08/15 02:34:23;;;;;;;;;;;23.10;66.20;;;;;;5021207;28;19996;-71
2022/08/15 02:36:48;;;;;;;;;;;23.10;66.40;;;;;;5022202;28;19925;-71
2022/08/15 02:39:14;;;;;;;;;;;23.10;66.30;;;;;;5024242;28;19935;-71
2022/08/15 02:41:41;;;;;;;;;;;23.10;66.20;;;;;;5006511;28;20014;-71
2022/08/15 02:44:08;;;;;;;;;;;23.10;66.20;;;;;;5024486;28;20442;-71
2022/08/15 02:46:36;;;;;;;;;;;23.10;66.20;;;;;;5007485;28;19917;-71
2022/08/15 02:49:04;;;;;;;;;;;23.00;66.30;;;;;;5024497;28;19948;-71
2022/08/15 02:51:29;;;;;;;;;;;23.00;66.40;;;;;;5023563;28;20604;-71
2022/08/15 02:53:55;;;;;;;;;;;23.00;66.60;;;;;;5029992;28;20003;-71
2022/08/15 02:56:22;;;;;;;;;;;23.00;66.60;;;;;;5043246;28;19921;-70
2022/08/15 02:58:49;;;;;;;;;;;23.00;66.60;;;;;;5043269;28;19952;-71
2022/08/15 03:01:14;;;;;;;;;;;23.00;66.40;;;;;;5025305;28;19913;-70
2022/08/15 03:03:42;;;;;;;;;;;23.00;66.50;;;;;;5043723;28;20261;-71
2022/08/15 03:06:08;;;;;;;;;;;22.90;66.30;;;;;;5042263;28;19972;-71
2022/08/15 03:08:35;;;;;;;;;;;22.90;66.40;;;;;;5035530;28;20642;-71
2022/08/15 03:11:02;;;;;;;;;;;22.90;66.40;;;;;;5032992;28;20012;-71
2022/08/15 03:13:28;;;;;;;;;;;22.90;66.60;;;;;;5023537;28;20238;-71
2022/08/15 03:15:56;;;;;;;;;;;22.90;66.60;;;;;;5006265;28;19909;-71
2022/08/15 03:18:22;;;;;;;;;;;22.90;66.70;;;;;;5024126;28;19970;-71
2022/08/15 03:20:51;;;;;;;;;;;22.90;66.70;;;;;;5024388;28;20357;-71
2022/08/15 03:23:21;;;;;;;;;;;22.90;66.60;;;;;;5019999;28;19914;-71
2022/08/15 03:25:51;;;;;;;;;;;22.80;66.60;;;;;;5039899;28;19917;-71
2022/08/15 03:28:18;;;;;;;;;;;22.80;66.50;;;;;;5042881;28;19935;-71
2022/08/15 03:30:43;;;;;;;;;;;22.80;66.60;;;;;;5042081;28;19944;-71
2022/08/15 03:33:09;;;;;;;;;;;22.80;66.70;;;;;;5024799;28;20695;-71
2022/08/15 03:35:40;;;;;;;;;;;22.80;66.50;;;;;;5024645;28;19956;-71
2022/08/15 03:38:06;;;;;;;;;;;22.80;66.40;;;;;;5042706;28;20008;-71
2022/08/15 03:40:32;;;;;;;;;;;22.70;66.40;;;;;;5042527;28;20007;-70
2022/08/15 03:43:00;;;;;;;;;;;22.70;66.60;;;;;;5029978;28;19917;-70
2022/08/15 03:45:27;;;;;;;;;;;22.80;66.70;;;;;;5023918;28;20021;-71
2022/08/15 03:47:53;;;;;;;;;;;22.70;67.30;;;;;;5003217;28;19921;-71
2022/08/15 03:50:18;;;;;;;;;;;22.70;66.60;;;;;;5009648;28;19999;-71
2022/08/15 03:52:52;;;;;;;;;;;22.70;66.70;;;;;;5022283;28;20068;-71
2022/08/15 03:55:18;;;;;;;;;;;22.70;67.20;;;;;;5023549;28;19919;-71
2022/08/15 03:57:44;;;;;;;;;;;22.70;66.60;;;;;;5023239;28;19914;-71
2022/08/15 04:00:11;;;;;;;;;;;22.70;66.50;;;;;;5037401;28;19971;-71
2022/08/15 04:02:37;;;;;;;;;;;22.60;66.40;;;;;;5043067;28;19922;-71
2022/08/15 04:05:03;;;;;;;;;;;22.60;66.40;;;;;;5042871;28;19971;-71
2022/08/15 04:07:28;;;;;;;;;;;22.60;66.40;;;;;;5037617;28;20031;-71
2022/08/15 04:09:54;;;;;;;;;;;22.60;66.50;;;;;;5042268;28;19920;-71
2022/08/15 04:12:30;;;;;;;;;;;22.60;66.60;;;;;;5024482;28;20023;-71
2022/08/15 04:14:56;;;;;;;;;;;22.60;66.60;;;;;;5035230;28;20286;-71
2022/08/15 04:17:21;;;;;;;;;;;22.60;66.50;;;;;;5022882;28;19913;-71
2022/08/15 04:19:47;;;;;;;;;;;22.60;66.40;;;;;;5022906;28;19910;-71
2022/08/15 04:22:13;;;;;;;;;;;22.60;66.60;;;;;;5022667;28;20440;-71
2022/08/15 04:24:39;;;;;;;;;;;22.60;66.50;;;;;;5015313;28;19913;-71
2022/08/15 04:27:04;;;;;;;;;;;22.50;66.40;;;;;;5041824;28;19965;-71
2022/08/15 04:29:30;;;;;;;;;;;22.60;66.20;;;;;;5023594;28;19961;-70
2022/08/15 04:31:56;;;;;;;;;;;22.50;66.30;;;;;;5039539;28;20296;-71
2022/08/15 04:34:22;;;;;;;;;;;22.50;66.20;;;;;;4998673;28;20293;-71
2022/08/15 04:36:47;;;;;;;;;;;22.50;66.20;;;;;;5023369;28;19913;-71
2022/08/15 04:39:13;;;;;;;;;;;22.50;66.20;;;;;;5023113;28;20012;-71
2022/08/15 04:41:38;;;;;;;;;;;22.50;66.20;;;;;;5022850;28;20292;-71
2022/08/15 04:44:04;;;;;;;;;;;22.50;66.20;;;;;;5034243;28;19916;-71
2022/08/15 04:46:30;;;;;;;;;;;22.50;66.20;;;;;;5033774;28;19924;-71
2022/08/15 04:48:56;;;;;;;;;;;22.50;65.80;;;;;;5041589;28;20278;-71
2022/08/15 04:51:21;;;;;;;;;;;22.50;65.80;;;;;;5037730;28;20467;-71
2022/08/15 04:53:47;;;;;;;;;;;22.50;65.80;;;;;;5021948;28;19914;-71
2022/08/15 04:56:12;;;;;;;;;;;22.50;65.40;;;;;;5041179;28;20396;-70
2022/08/15 04:58:38;;;;;;;;;;;22.50;65.60;;;;;;5022323;28;19917;-71
2022/08/15 05:01:08;;;;;;;;;;;22.50;65.70;;;;;;5021673;28;19913;-71
2022/08/15 05:03:34;;;;;;;;;;;22.50;65.70;;;;;;5022540;28;19913;-71
2022/08/15 05:06:01;;;;;;;;;;;22.50;65.80;;;;;;5026293;28;19913;-71
2022/08/15 05:08:27;;;;;;;;;;;22.40;65.40;;;;;;5041793;28;19917;-71
2022/08/15 05:10:54;;;;;;;;;;;22.50;65.60;;;;;;5041378;28;19954;-71
2022/08/15 05:13:21;;;;;;;;;;;22.50;65.50;;;;;;5020434;28;19916;-71
2022/08/15 05:15:47;;;;;;;;;;;22.50;65.40;;;;;;5024916;28;19913;-71
2022/08/15 05:18:14;;;;;;;;;;;22.50;65.20;;;;;;5022311;28;19917;-71
2022/08/15 05:20:41;;;;;;;;;;;22.50;65.40;;;;;;5012260;28;19913;-71
2022/08/15 05:23:09;;;;;;;;;;;22.50;65.20;;;;;;5004338;28;19913;-71
2022/08/15 05:25:35;;;;;;;;;;;22.50;65.30;;;;;;5004639;28;20536;-71
2022/08/15 05:28:02;;;;;;;;;;;22.50;65.30;;;;;;5022622;28;19948;-71
2022/08/15 05:30:27;;;;;;;;;;;22.50;65.30;;;;;;5021810;28;19917;-71
2022/08/15 05:33:00;;;;;;;;;;;22.50;65.30;;;;;;5004115;28;19948;-71
2022/08/15 05:35:26;;;;;;;;;;;22.50;65.20;;;;;;5003940;28;19952;-71
2022/08/15 05:37:52;;;;;;;;;;;22.50;65.10;;;;;;5022095;28;19932;-71
2022/08/15 05:40:17;;;;;;;;;;;22.50;65.20;;;;;;5022017;28;19913;-71
2022/08/15 05:42:43;;;;;;;;;;;22.50;64.80;;;;;;5021824;28;19920;-71
2022/08/15 05:45:12;;;;;;;;;;;22.50;65.10;;;;;;5004043;28;19921;-71
2022/08/15 05:47:57;;;;;;;;;;;22.50;65.10;;;;;;5021539;28;19918;-71
2022/08/15 05:50:30;;;;;;;;;;;22.50;64.90;;;;;;5021270;28;19937;-70
2022/08/15 05:52:58;;;;;;;;;;;22.50;65.00;;;;;;5018459;28;19917;-71
2022/08/15 05:55:27;;;;;;;;;;;22.50;64.90;;;;;;5000848;28;19913;-71
2022/08/15 05:57:52;;;;;;;;;;;22.50;64.80;;;;;;5040915;28;19913;-71
2022/08/15 06:00:18;;;;;;;;;;;22.60;64.80;;;;;;5022436;28;19916;-71
2022/08/15 06:02:53;;;;;;;;;;;22.60;64.90;;;;;;5040770;28;20576;-71
2022/08/15 06:05:51;;;;;;;;;;;22.60;64.80;;;;;;5033868;28;19917;-71
2022/08/15 06:08:20;;;;;;;;;;;22.60;64.50;;;;;;5017901;28;19919;-71
2022/08/15 06:10:51;;;;;;;;;;;22.60;64.70;;;;;;5023057;28;19947;-72
2022/08/15 06:13:21;;;;;;;;;;;22.60;64.40;;;;;;5043782;28;20032;-72
2022/08/15 06:15:50;;;;;;;;;;;22.60;64.50;;;;;;5029699;28;19960;-72
2022/08/15 06:18:17;;;;;;;;;;;22.60;64.50;;;;;;5006604;28;19920;-71
2022/08/15 06:20:48;;;;;;;;;;;22.60;64.40;;;;;;5024122;28;20543;-71
2022/08/15 06:23:20;;;;;;;;;;;22.70;64.40;;;;;;5023351;28;19991;-71
2022/08/15 06:26:03;;;;;;;;;;;22.70;64.40;;;;;;5018595;28;19913;-71
2022/08/15 06:28:42;;;;;;;;;;;22.70;64.10;;;;;;5043818;28;20023;-72
2022/08/15 06:31:18;;;;;;;;;;;22.70;64.20;;;;;;5043970;28;19909;-72
2022/08/15 06:33:46;;;;;;;;;;;22.70;64.20;;;;;;5044165;28;19923;-72
2022/08/15 06:36:32;;;;;;;;;;;22.70;64.10;;;;;;5043727;28;19913;-72
2022/08/15 06:39:04;;;;;;;;;;;22.80;64.10;;;;;;5023824;28;20003;-72
2022/08/15 06:41:32;;;;;;;;;;;22.80;64.10;;;;;;5024381;28;19913;-71
2022/08/15 06:43:58;;;;;;;;;;;22.80;64.20;;;;;;5006699;28;19913;-72
2022/08/15 06:46:29;;;;;;;;;;;22.80;63.90;;;;;;5024338;28;19921;-72
2022/08/15 06:48:55;;;;;;;;;;;22.80;64.00;;;;;;5024463;28;20012;-72
2022/08/15 06:51:22;;;;;;;;;;;22.80;64.00;;;;;;5023703;28;20419;-72
2022/08/15 06:53:50;;;;;;;;;;;22.80;63.90;;;;;;5023683;28;19928;-72
2022/08/15 06:56:16;;;;;;;;;;;22.90;64.00;;;;;;5006757;28;20016;-72
2022/08/15 06:58:47;;;;;;;;;;;22.90;63.90;;;;;;5024426;28;20445;-72
2022/08/15 07:01:25;;;;;;;;;;;22.80;63.80;;;;;;5006148;28;19920;-72
2022/08/15 07:03:56;;;;;;;;;;;22.80;63.80;;;;;;5023959;28;20016;-71
2022/08/15 07:06:28;;;;;;;;;;;22.90;63.70;;;;;;5039143;28;19961;-72
2022/08/15 07:08:57;;;;;;;;;;;22.90;63.90;;;;;;5006410;28;20574;-71
2022/08/15 07:11:42;;;;;;;;;;;22.90;63.80;;;;;;5023990;28;20359;-71
2022/08/15 07:14:21;;;;;;;;;;;22.90;63.80;;;;;;5006296;28;19910;-72
2022/08/15 07:16:47;;;;;;;;;;;23.00;63.90;;;;;;5024102;28;19909;-72
2022/08/15 07:19:13;;;;;;;;;;;23.00;63.80;;;;;;5023983;28;19913;-72
2022/08/15 07:21:39;;;;;;;;;;;23.00;63.80;;;;;;5019328;28;20231;-72
2022/08/15 07:24:04;;;;;;;;;;;23.00;63.70;;;;;;5003232;28;19928;-72
2022/08/15 07:26:37;;;;;;;;;;;23.00;63.60;;;;;;5030548;28;20666;-72
2022/08/15 07:29:08;;;;;;;;;;;23.00;63.70;;;;;;5023834;28;19913;-71
2022/08/15 07:31:34;;;;;;;;;;;23.00;63.70;;;;;;5023435;28;19910;-71
2022/08/15 07:34:05;;;;;;;;;;;23.10;63.70;;;;;;5024030;28;20068;-72
2022/08/15 07:36:33;;;;;;;;;;;23.10;63.70;;;;;;5005817;28;19969;-72
2022/08/15 07:38:59;;;;;;;;;;;23.10;63.70;;;;;;5023684;28;19913;-71
2022/08/15 07:41:32;;;;;;;;;;;23.10;63.70;;;;;;5022887;28;19924;-71
2022/08/15 07:43:57;;;;;;;;;;;23.10;63.60;;;;;;5023363;28;20491;-72
2022/08/15 07:46:36;;;;;;;;;;;23.10;63.60;;;;;;5023271;28;19928;-72
2022/08/15 07:49:24;;;;;;;;;;;23.10;63.60;;;;;;5015156;28;20008;-72
2022/08/15 07:51:57;;;;;;;;;;;23.20;63.60;;;;;;5017036;28;20005;-72
2022/08/15 07:54:24;;;;;;;;;;;23.20;64.20;;;;;;5028292;28;20014;-72
2022/08/15 07:56:58;;;;;;;;;;;23.20;63.50;;;;;;5023670;28;20528;-72
2022/08/15 07:59:33;;;;;;;;;;;23.30;63.60;;;;;;5023720;28;20327;-72
2022/08/15 08:02:09;;;;;;;;;;;23.30;63.40;;;;;;5023434;28;20650;-72
2022/08/15 08:04:35;;;;;;;;;;;23.30;63.40;;;;;;5023385;28;20057;-72
2022/08/15 08:07:13;;;;;;;;;;;23.40;63.30;;;;;;5034114;28;19924;-72
2022/08/15 08:09:41;;;;;;;;;;;23.50;63.40;;;;;;5041946;28;19920;-71
2022/08/15 08:12:25;;;;;;;;;;;23.50;63.30;;;;;;5024236;28;19921;-72
2022/08/15 08:14:51;;;;;;;;;;;23.50;63.20;;;;;;5031620;28;19943;-71
2022/08/15 08:17:36;;;;;;;;;;;23.60;63.20;;;;;;5022775;28;20409;-71
2022/08/15 08:20:20;;;;;;;;;;;23.60;63.10;;;;;;5022819;28;19938;-71
2022/08/15 08:22:52;;;;;;;;;;;23.60;63.20;;;;;;5020858;28;19958;-71
2022/08/15 08:25:26;;;;;;;;;;;23.60;63.10;;;;;;5016920;28;19918;-71
2022/08/15 08:27:57;;;;;;;;;;;23.60;63.10;;;;;;5017537;28;19917;-71
2022/08/15 08:30:24;;;;;;;;;;;23.70;63.20;;;;;;5022626;28;20000;-71
2022/08/15 08:32:49;;;;;;;;;;;23.60;63.10;;;;;;5004508;28;19921;-71
2022/08/15 08:35:38;;;;;;;;;;;23.60;63.10;;;;;;5021939;28;19913;-71
2022/08/15 08:38:03;;;;;;;;;;;23.60;63.10;;;;;;5010628;28;20499;-71
2022/08/15 08:43:39;;;;;;;;;;;23.70;63.20;;;;;;5023003;28;19968;-71
2022/08/15 08:46:07;;;;;;;;;;;23.70;63.30;;;;;;5022358;28;19921;-71
2022/08/15 08:48:38;;;;;;;;;;;23.70;63.20;;;;;;5023260;28;19967;-71
2022/08/15 08:51:19;;;;;;;;;;;23.70;63.10;;;;;;5022635;28;19913;-71
2022/08/15 08:54:01;;;;;;;;;;;23.80;63.20;;;;;;5022431;28;20011;-71
2022/08/15 08:56:32;;;;;;;;;;;23.80;63.40;;;;;;5023541;28;20000;-71
2022/08/15 08:59:13;;;;;;;;;;;23.80;63.30;;;;;;5041490;28;19999;-71
2022/08/15 09:01:39;;;;;;;;;;;23.80;63.10;;;;;;5036911;28;19921;-71
2022/08/15 09:04:08;;;;;;;;;;;23.80;63.10;;;;;;5037875;28;20061;-71
2022/08/15 09:06:37;;;;;;;;;;;23.80;63.10;;;;;;5029110;28;19952;-71
2022/08/15 09:09:05;;;;;;;;;;;23.90;63.20;;;;;;5041528;28;19913;-71
2022/08/15 09:11:42;;;;;;;;;;;23.90;63.30;;;;;;5040992;28;19917;-71
2022/08/15 09:14:12;;;;;;;;;;;23.90;63.20;;;;;;5040332;28;19913;-71
2022/08/15 09:16:38;;;;;;;;;;;23.90;63.20;;;;;;5004350;28;19917;-71
2022/08/15 09:19:13;;;;;;;;;;;23.90;63.30;;;;;;5022202;28;19917;-71
2022/08/15 09:21:41;;;;;;;;;;;23.90;63.40;;;;;;5027050;28;19985;-71
2022/08/15 09:24:07;;;;;;;;;;;23.90;63.30;;;;;;5010682;28;19913;-71
2022/08/15 09:27:05;;;;;;;;;;;23.90;63.20;;;;;;5022068;28;20003;-71
2022/08/15 09:29:33;;;;;;;;;;;23.90;63.20;;;;;;4993619;28;20000;-71
2022/08/15 09:32:09;;;;;;;;;;;23.90;63.30;;;;;;5004637;28;19917;-71
2022/08/15 09:34:54;;;;;;;;;;;23.90;63.20;;;;;;5022281;28;19913;-72
2022/08/15 09:37:45;;;;;;;;;;;23.90;63.30;;;;;;5022035;28;20007;-71
2022/08/15 09:40:17;;;;;;;;;;;24.00;63.40;;;;;;5010837;28;19921;-71
2022/08/15 09:42:52;;;;;;;;;;;24.00;63.10;;;;;;5021634;28;19920;-71
2022/08/15 09:45:32;;;;;;;;;;;24.10;63.30;;;;;;5021691;28;19927;-72
2022/08/15 09:48:23;;;;;;;;;;;24.10;63.30;;;;;;5024873;28;19913;-71
2022/08/15 09:50:57;;;;;;;;;;;24.20;63.10;;;;;;5013118;27;19917;-71
2022/08/15 09:53:34;;;;;;;;;;;24.20;63.20;;;;;;5007513;28;19924;-71
2022/08/15 09:56:06;;;;;;;;;;;24.30;63.00;;;;;;5007330;28;19921;-72
2022/08/15 09:58:35;;;;;;;;;;;24.30;63.10;;;;;;5025090;28;20376;-70
2022/08/15 10:01:16;;;;;;;;;;;24.40;62.90;;;;;;5024947;28;19917;-71
2022/08/15 10:03:44;;;;;;;;;;;24.50;63.10;;;;;;5025690;28;20046;-71
2022/08/15 10:06:15;;;;;;;;;;;24.50;63.00;;;;;;5014893;28;19913;-71
2022/08/15 10:09:02;;;;;;;;;;;24.50;62.80;;;;;;5044222;28;19924;-71
2022/08/15 10:11:38;;;;;;;;;;;24.60;62.90;;;;;;4999527;28;19913;-71
2022/08/15 10:14:06;;;;;;;;;;;24.60;62.70;;;;;;5019996;28;19913;-71
2022/08/15 10:16:42;;;;;;;;;;;24.70;62.70;;;;;;5024478;28;19917;-71
2022/08/15 10:19:27;;;;;;;;;;;24.70;62.50;;;;;;5024164;28;19913;-71
2022/08/15 10:21:55;;;;;;;;;;;24.80;62.70;;;;;;5039480;28;19924;-71
2022/08/15 10:24:32;;;;;;;;;;;24.80;62.50;;;;;;5028126;28;20008;-71
2022/08/15 10:27:12;;;;;;;;;;;24.90;62.50;;;;;;5058695;28;19913;-71
2022/08/15 10:29:48;;;;;;;;;;;25.00;62.40;;;;;;5035785;28;20188;-71
2022/08/15 10:32:38;;;;;;;;;;;25.10;62.30;;;;;;5025610;28;19939;-71
2022/08/15 10:35:07;;;;;;;;;;;25.10;61.90;;;;;;5043586;28;20456;-71
2022/08/15 10:37:52;;;;;;;;;;;25.20;62.20;;;;;;5043475;28;20439;-71
2022/08/15 10:40:17;;;;;;;;;;;25.30;62.00;;;;;;5043187;28;20033;-71
2022/08/15 10:42:49;;;;;;;;;;;25.30;62.10;;;;;;5025748;28;19913;-71
2022/08/15 10:45:41;;;;;;;;;;;25.40;62.00;;;;;;5033512;28;20022;-71
2022/08/15 10:48:13;;;;;;;;;;;25.40;61.90;;;;;;5002288;28;19919;-71
2022/08/15 10:50:42;;;;;;;;;;;25.40;62.20;;;;;;5013443;28;20434;-71
2022/08/15 10:53:27;;;;;;;;;;;25.50;61.90;;;;;;5024368;28;19923;-72
2022/08/15 10:56:05;;;;;;;;;;;25.50;62.10;;;;;;5043754;28;20471;-71
2022/08/15 10:58:32;;;;;;;;;;;25.50;62.00;;;;;;5043020;28;19920;-71
2022/08/15 11:01:03;;;;;;;;;;;25.50;62.10;;;;;;5043130;28;20049;-71
2022/08/15 11:03:35;;;;;;;;;;;25.50;61.90;;;;;;5019203;28;19928;-72
2022/08/15 11:06:03;;;;;;;;;;;25.60;62.00;;;;;;5037530;28;19925;-71
2022/08/15 11:08:29;;;;;;;;;;;25.60;61.90;;;;;;5043214;28;19913;-71
2022/08/15 11:11:04;;;;;;;;;;;25.60;62.00;;;;;;5026749;28;20663;-71
2022/08/15 11:13:31;;;;;;;;;;;25.70;61.90;;;;;;5024993;28;19917;-71
2022/08/15 11:16:06;;;;;;;;;;;25.80;61.60;;;;;;5024053;28;19917;-71
2022/08/15 11:18:33;;;;;;;;;;;25.90;61.90;;;;;;5006401;28;19913;-71
2022/08/15 11:21:22;;;;;;;;;;;25.90;61.60;;;;;;5024280;28;20004;-71
2022/08/15 11:23:53;;;;;;;;;;;25.90;61.70;;;;;;5018845;28;19957;-71
2022/08/15 11:26:24;;;;;;;;;;;26.00;61.60;;;;;;5019151;28;19921;-71
2022/08/15 11:29:10;;;;;;;;;;;26.00;61.70;;;;;;5025030;28;19916;-71
2022/08/15 11:31:45;;;;;;;;;;;26.10;61.70;;;;;;5024634;28;19935;-71
2022/08/15 11:34:34;;;;;;;;;;;26.20;61.40;;;;;;5043123;28;19920;-71
2022/08/15 11:37:14;;;;;;;;;;;26.30;61.30;;;;;;5018242;28;19913;-71
2022/08/15 11:39:46;;;;;;;;;;;26.40;61.40;;;;;;5023388;28;19917;-71
2022/08/15 11:42:17;;;;;;;;;;;26.50;61.30;;;;;;5022106;28;19917;-71
2022/08/15 11:44:51;;;;;;;;;;;26.60;61.20;;;;;;5037430;28;20004;-70
2022/08/15 11:47:18;;;;;;;;;;;26.60;61.00;;;;;;5005979;28;19913;-71
2022/08/15 11:49:48;;;;;;;;;;;26.70;61.10;;;;;;5023174;28;19957;-71
2022/08/15 11:52:19;;;;;;;;;;;26.70;61.00;;;;;;5034286;28;20008;-71
2022/08/15 11:54:45;;;;;;;;;;;26.70;60.90;;;;;;5007124;28;20511;-71
2022/08/15 11:57:19;;;;;;;;;;;26.80;61.20;;;;;;5024189;28;19917;-71
2022/08/15 11:59:56;;;;;;;;;;;26.80;61.10;;;;;;5023664;28;20914;-70
2022/08/15 12:02:23;;;;;;;;;;;26.80;61.20;;;;;;5023557;28;19913;-70
2022/08/15 12:04:49;;;;;;;;;;;26.80;61.40;;;;;;5023502;28;20022;-70
2022/08/15 12:07:19;;;;;;;;;;;26.70;61.50;;;;;;5032957;28;20583;-70
2022/08/15 12:09:49;;;;;;;;;;;26.70;61.50;;;;;;5004450;28;19947;-71
2022/08/15 12:12:22;;;;;;;;;;;26.70;61.40;;;;;;5023351;28;20304;-71
2022/08/15 12:14:47;;;;;;;;;;;26.70;61.50;;;;;;5005412;28;19913;-71
2022/08/15 12:17:23;;;;;;;;;;;26.70;61.60;;;;;;5023331;28;19939;-71
2022/08/15 12:19:55;;;;;;;;;;;26.70;61.60;;;;;;5023187;28;19924;-71
2022/08/15 12:22:30;;;;;;;;;;;26.70;61.60;;;;;;5023820;28;20350;-71
2022/08/15 12:24:56;;;;;;;;;;;26.70;61.80;;;;;;5035703;28;19917;-71
2022/08/15 12:27:22;;;;;;;;;;;26.60;61.80;;;;;;5010080;28;20484;-70
2022/08/15 12:29:48;;;;;;;;;;;26.60;61.90;;;;;;5022356;28;19916;-70
2022/08/15 12:32:13;;;;;;;;;;;26.60;62.00;;;;;;5022733;28;20013;-70
2022/08/15 12:34:49;;;;;;;;;;;26.60;62.00;;;;;;5022641;28;19917;-70
2022/08/15 12:37:17;;;;;;;;;;;26.60;62.10;;;;;;5023259;28;20050;-70
2022/08/15 12:39:44;;;;;;;;;;;26.60;62.80;;;;;;5023129;28;19924;-70
2022/08/15 12:42:15;;;;;;;;;;;26.60;62.10;;;;;;5023001;28;19988;-70
2022/08/15 12:44:43;;;;;;;;;;;26.60;62.20;;;;;;5022740;28;19917;-71
2022/08/15 12:47:08;;;;;;;;;;;26.60;62.10;;;;;;5027959;28;19917;-70
2022/08/15 12:49:34;;;;;;;;;;;26.60;62.20;;;;;;5031692;28;19968;-70
2022/08/15 12:51:59;;;;;;;;;;;26.60;62.30;;;;;;5022537;28;19917;-70
2022/08/15 12:54:25;;;;;;;;;;;26.60;62.80;;;;;;5029484;28;19912;-71
2022/08/15 12:56:51;;;;;;;;;;;26.70;62.20;;;;;;5033948;28;19923;-70
2022/08/15 12:59:16;;;;;;;;;;;26.60;62.10;;;;;;5038119;28;19913;-70
2022/08/15 13:01:43;;;;;;;;;;;26.60;62.10;;;;;;5041780;28;19956;-70
2022/08/15 13:04:10;;;;;;;;;;;26.60;62.20;;;;;;5041088;28;19957;-70
2022/08/15 13:06:39;;;;;;;;;;;26.60;62.20;;;;;;5032858;28;19913;-71
2022/08/15 13:09:06;;;;;;;;;;;26.60;62.20;;;;;;5041783;28;19974;-71
2022/08/15 13:11:32;;;;;;;;;;;26.60;62.20;;;;;;5038451;28;20057;-70
2022/08/15 13:13:57;;;;;;;;;;;26.60;62.20;;;;;;5022223;28;19916;-70
2022/08/15 13:16:23;;;;;;;;;;;26.60;62.20;;;;;;5022011;28;19956;-70
2022/08/15 13:18:48;;;;;;;;;;;26.60;62.30;;;;;;5022676;28;19909;-70
2022/08/15 13:23:58;;;;;;;;;;;26.50;62.30;;;;;;5034447;28;19957;-70
2022/08/15 13:26:24;;;;;;;;;;;26.50;62.30;;;;;;5041536;28;19913;-70
2022/08/15 13:28:53;;;;;;;;;;;26.50;62.40;;;;;;5033857;28;19924;-70
2022/08/15 13:31:19;;;;;;;;;;;26.40;62.50;;;;;;5015074;28;20045;-70
2022/08/15 13:33:44;;;;;;;;;;;26.40;62.50;;;;;;5040166;28;19971;-70
2022/08/15 13:36:12;;;;;;;;;;;26.40;62.60;;;;;;5040442;28;20273;-70
2022/08/15 13:38:46;;;;;;;;;;;26.40;62.60;;;;;;5040451;28;19962;-70
2022/08/15 13:41:13;;;;;;;;;;;26.40;62.60;;;;;;5040318;28;19917;-70
2022/08/15 13:43:43;;;;;;;;;;;26.40;62.60;;;;;;5039619;28;20008;-70
2022/08/15 13:46:10;;;;;;;;;;;26.40;62.70;;;;;;5020986;28;20708;-70
2022/08/15 13:48:41;;;;;;;;;;;26.40;62.70;;;;;;5027723;28;19919;-70
2022/08/15 13:51:13;;;;;;;;;;;26.40;62.70;;;;;;5016834;28;19909;-70
2022/08/15 13:53:39;;;;;;;;;;;26.40;62.70;;;;;;4997010;28;20367;-71
2022/08/15 13:56:06;;;;;;;;;;;26.40;62.70;;;;;;5014708;28;19913;-70
2022/08/15 13:58:32;;;;;;;;;;;26.40;62.70;;;;;;5014932;28;19920;-71
2022/08/15 14:00:59;;;;;;;;;;;26.40;62.70;;;;;;5020656;28;19913;-70
2022/08/15 14:03:26;;;;;;;;;;;26.40;62.70;;;;;;5021235;28;19945;-71
2022/08/15 14:05:52;;;;;;;;;;;26.40;62.70;;;;;;5023588;28;20012;-70
2022/08/15 14:08:18;;;;;;;;;;;26.40;62.80;;;;;;5021406;28;19993;-71
2022/08/15 14:10:44;;;;;;;;;;;26.40;62.80;;;;;;5020737;28;19916;-70
2022/08/15 14:13:09;;;;;;;;;;;26.40;62.80;;;;;;5020314;28;19990;-70
2022/08/15 14:15:35;;;;;;;;;;;26.40;62.80;;;;;;5020840;28;19920;-70
2022/08/15 14:18:02;;;;;;;;;;;26.40;62.90;;;;;;5020690;28;19917;-70
2022/08/15 14:20:27;;;;;;;;;;;26.40;62.80;;;;;;5025526;28;19962;-70
2022/08/15 14:22:54;;;;;;;;;;;26.40;62.90;;;;;;5000809;28;19921;-70
2022/08/15 14:25:19;;;;;;;;;;;26.40;63.50;;;;;;5052024;28;19916;-70
2022/08/15 14:27:45;;;;;;;;;;;26.40;62.90;;;;;;5040015;28;19950;-70
2022/08/15 14:30:12;;;;;;;;;;;26.40;62.80;;;;;;5039290;28;19993;-70
2022/08/15 14:32:37;;;;;;;;;;;26.40;62.70;;;;;;5040674;28;19921;-71
2022/08/15 14:35:04;;;;;;;;;;;26.40;62.60;;;;;;5043419;28;19909;-71
2022/08/15 14:37:29;;;;;;;;;;;26.50;62.40;;;;;;5037482;28;20505;-71
2022/08/15 14:39:55;;;;;;;;;;;26.60;62.30;;;;;;5043069;28;19992;-70
2022/08/15 14:42:23;;;;;;;;;;;26.80;62.40;;;;;;5032830;28;19925;-70